| time (UTC) | temp F | wind direction | speed MPH | gust MPH | rain 1hr in | rain 24hr in | rain mn in | humidity % | barometer mb |
| 20260504194548 | 83 | 199 | 8.0 | 14.0 | 0.00 | 0.00 | 0.00 | 38 | 998.0 |
| 20260504194044 | 82 | 303 | 3.0 | 13.0 | 0.00 | 0.00 | 0.00 | 39 | 998.3 |
| 20260504193540 | 83 | 192 | 8.0 | 9.0 | 0.00 | 0.00 | 0.00 | 41 | 998.3 |
| 20260504193039 | 82 | 303 | 2.0 | 12.0 | 0.00 | 0.00 | 0.00 | 39 | 998.4 |
| 20260504192537 | 82 | 194 | 7.0 | 11.0 | 0.00 | 0.00 | 0.00 | 38 | 998.3 |
| 20260504192035 | 82 | 193 | 0.0 | 15.0 | 0.00 | 0.00 | 0.00 | 39 | 998.2 |
| 20260504191533 | 81 | 210 | 4.0 | 8.0 | 0.00 | 0.00 | 0.00 | 38 | 998.4 |
| 20260504191028 | 82 | 225 | 0.0 | 9.0 | 0.00 | 0.00 | 0.00 | 36 | 998.4 |
| 20260504190525 | 82 | 220 | 4.0 | 7.0 | 0.00 | 0.00 | 0.00 | 39 | 998.5 |
| 20260504190021 | 82 | 209 | 3.0 | 12.0 | 0.00 | 0.00 | 0.00 | 36 | 998.5 |
| 20260504185518 | 82 | 204 | 4.0 | 13.0 | 0.00 | 0.00 | 0.00 | 37 | 998.3 |
| 20260504185015 | 81 | 197 | 3.0 | 7.0 | 0.00 | 0.00 | 0.00 | 39 | 998.5 |
| 20260504184510 | 81 | 203 | 5.0 | 9.0 | 0.00 | 0.00 | 0.00 | 40 | 998.5 |
| 20260504184006 | 81 | 21 | 2.0 | 12.0 | 0.00 | 0.00 | 0.00 | 41 | 998.4 |
| 20260504183503 | 81 | 255 | 0.0 | 11.0 | 0.00 | 0.00 | 0.00 | 40 | 998.6 |
| 20260504183001 | 80 | 217 | 4.0 | 7.0 | 0.00 | 0.00 | 0.00 | 41 | 998.6 |
| 20260504182458 | 80 | 201 | 8.0 | 15.0 | 0.00 | 0.00 | 0.00 | 39 | 998.4 |
| 20260504181955 | 81 | 200 | 7.0 | 14.0 | 0.00 | 0.00 | 0.00 | 39 | 998.7 |
| 20260504181452 | 80 | 304 | 2.0 | 11.0 | 0.00 | 0.00 | 0.00 | 41 | 998.8 |
| 20260504180950 | 80 | 201 | 7.0 | 9.0 | 0.00 | 0.00 | 0.00 | 42 | 998.8 |
| 20260504180449 | 80 | 189 | 3.0 | 14.0 | 0.00 | 0.00 | 0.00 | 41 | 998.7 |
| 20260504175947 | 79 | 226 | 4.0 | 16.0 | 0.00 | 0.00 | 0.00 | 41 | 998.8 |
| 20260504175444 | 79 | 215 | 5.0 | 11.0 | 0.00 | 0.00 | 0.00 | 41 | 999.0 |
| 20260504174941 | 79 | 257 | 0.0 | 7.0 | 0.00 | 0.00 | 0.00 | 43 | 998.6 |
| 20260504174439 | 79 | 205 | 5.0 | 14.0 | 0.00 | 0.00 | 0.00 | 43 | 998.9 |
| 20260504173936 | 79 | 180 | 1.0 | 9.0 | 0.00 | 0.00 | 0.00 | 43 | 999.1 |
| 20260504173432 | 78 | 244 | 5.0 | 14.0 | 0.00 | 0.00 | 0.00 | 42 | 999.0 |
| 20260504172930 | 78 | 209 | 2.0 | 15.0 | 0.00 | 0.00 | 0.00 | 43 | 999.1 |
| 20260504172426 | 78 | 223 | 0.0 | 13.0 | 0.00 | 0.00 | 0.00 | 47 | 999.2 |
| 20260504171922 | 78 | 199 | 6.0 | 8.0 | 0.00 | 0.00 | 0.00 | 47 | 999.5 |
| 20260504171420 | 78 | 255 | 0.0 | 6.0 | 0.00 | 0.00 | 0.00 | 50 | 999.4 |
| 20260504170917 | 77 | 215 | 4.0 | 12.0 | 0.00 | 0.00 | 0.00 | 47 | 999.4 |
| 20260504170413 | 76 | 230 | 3.0 | 11.0 | 0.00 | 0.00 | 0.00 | 48 | 999.6 |
| 20260504160332 | 74 | 202 | 8.0 | 8.0 | 0.00 | 0.00 | 0.00 | 55 | 1000.3 |
| 20260504150756 | 71 | 197 | 5.0 | 7.0 | 0.00 | 0.00 | 0.00 | 59 | 1001.2 |
| 20260504150253 | 70 | 202 | 6.0 | 11.0 | 0.00 | 0.00 | 0.00 | 59 | 1001.4 |
| 20260504141223 | 68 | 194 | 2.0 | 4.0 | 0.00 | 0.00 | 0.00 | 65 | 1001.6 |
| 20260504140720 | 67 | 197 | 3.0 | 4.0 | 0.00 | 0.00 | 0.00 | 65 | 1001.6 |
| 20260504140215 | 66 | 195 | 2.0 | 5.0 | 0.00 | 0.00 | 0.00 | 67 | 1001.9 |
| 20260504130644 | 59 | 198 | 5.0 | 6.0 | 0.00 | 0.00 | 0.00 | 76 | 1002.4 |
| 20260504130140 | 59 | 188 | 2.0 | 4.0 | 0.00 | 0.00 | 0.00 | 77 | 1002.5 |
| 20260504120104 | 53 | 195 | 3.0 | 5.0 | 0.00 | 0.00 | 0.00 | 83 | 1002.7 |
| 20260504110531 | 49 | 201 | 2.0 | 4.0 | 0.00 | 0.00 | 0.00 | 88 | 1003.1 |
| 20260504100448 | 49 | 194 | 4.0 | 6.0 | 0.00 | 0.00 | 0.00 | 87 | 1003.4 |
| 20260504081841 | 51 | 195 | 0.0 | 4.0 | 0.00 | 0.00 | 0.00 | 84 | 1003.3 |
| 20260504081338 | 51 | 234 | 1.0 | 4.0 | 0.00 | 0.00 | 0.00 | 84 | 1003.3 |
| 20260504080833 | 51 | 192 | 2.0 | 2.0 | 0.00 | 0.00 | 0.00 | 84 | 1003.4 |
| 20260504080331 | 51 | 194 | 1.0 | 3.0 | 0.00 | 0.00 | 0.00 | 84 | 1003.2 |
| 20260504070258 | 55 | 194 | 1.0 | 4.0 | 0.00 | 0.00 | 0.00 | 74 | 1003.4 |
| 20260504060218 | 55 | 194 | 2.0 | 4.0 | 0.00 | 0.00 | 0.00 | 76 | 1004.3 |
| 20260504050646 | 55 | 218 | 2.0 | 5.0 | 0.00 | 0.00 | 0.00 | 75 | 1004.9 |
| 20260504050143 | 55 | 192 | 2.0 | 3.0 | 0.00 | 0.00 | 0.00 | 75 | 1004.6 |
| 20260504045640 | 55 | 195 | 2.0 | 4.0 | 0.00 | 0.02 | 0.02 | 75 | 1004.5 |
| 20260504045140 | 55 | 192 | 3.0 | 3.0 | 0.00 | 0.02 | 0.02 | 75 | 1004.6 |
| 20260504044638 | 55 | 196 | 2.0 | 4.0 | 0.00 | 0.02 | 0.02 | 75 | 1004.5 |
| 20260504044135 | 55 | 176 | 2.0 | 4.0 | 0.00 | 0.02 | 0.02 | 75 | 1004.7 |
| 20260504043632 | 55 | 206 | 2.0 | 4.0 | 0.00 | 0.02 | 0.02 | 75 | 1004.7 |
| 20260504043129 | 56 | 194 | 1.0 | 4.0 | 0.00 | 0.02 | 0.02 | 75 | 1004.6 |
| 20260504042626 | 56 | 200 | 3.0 | 4.0 | 0.00 | 0.02 | 0.02 | 75 | 1004.7 |
| 20260504042123 | 56 | 199 | 2.0 | 4.0 | 0.00 | 0.02 | 0.02 | 75 | 1004.5 |
| 20260504041619 | 56 | 195 | 1.0 | 4.0 | 0.00 | 0.02 | 0.02 | 74 | 1004.8 |
| 20260504041115 | 56 | 198 | 3.0 | 3.0 | 0.00 | 0.02 | 0.02 | 74 | 1004.8 |
| 20260504040613 | 56 | 209 | 0.0 | 4.0 | 0.00 | 0.02 | 0.02 | 73 | 1004.8 |
| 20260504040109 | 57 | 195 | 2.0 | 4.0 | 0.00 | 0.02 | 0.02 | 72 | 1004.9 |
| 20260504035606 | 57 | 198 | 3.0 | 4.0 | 0.00 | 0.02 | 0.02 | 72 | 1004.9 |
| 20260504035102 | 57 | 199 | 2.0 | 4.0 | 0.00 | 0.02 | 0.02 | 72 | 1004.8 |
| 20260504034600 | 57 | 192 | 4.0 | 4.0 | 0.00 | 0.02 | 0.02 | 71 | 1005.1 |
| 20260504034057 | 57 | 191 | 0.0 | 5.0 | 0.00 | 0.02 | 0.02 | 71 | 1005.0 |
| 20260504033555 | 57 | 203 | 2.0 | 4.0 | 0.00 | 0.02 | 0.02 | 71 | 1004.9 |
| 20260504033052 | 57 | 209 | 3.0 | 4.0 | 0.00 | 0.02 | 0.02 | 71 | 1005.0 |
| 20260504032549 | 57 | 199 | 2.0 | 4.0 | 0.00 | 0.02 | 0.02 | 71 | 1005.0 |
| 20260504032046 | 57 | 194 | 2.0 | 3.0 | 0.00 | 0.02 | 0.02 | 71 | 1005.2 |
| 20260504031543 | 57 | 195 | 2.0 | 3.0 | 0.00 | 0.02 | 0.02 | 71 | 1005.2 |
| 20260504031039 | 57 | 208 | 2.0 | 3.0 | 0.00 | 0.02 | 0.02 | 72 | 1005.1 |
| 20260504030536 | 57 | 200 | 0.0 | 2.0 | 0.00 | 0.02 | 0.02 | 71 | 1005.1 |
| 20260504030032 | 57 | 180 | 2.0 | 3.0 | 0.00 | 0.02 | 0.02 | 71 | 1005.2 |
| 20260504025530 | 57 | 191 | 1.0 | 2.0 | 0.00 | 0.02 | 0.02 | 71 | 1005.3 |
| 20260504025026 | 57 | 196 | 0.0 | 2.0 | 0.00 | 0.02 | 0.02 | 70 | 1005.2 |
| 20260504024523 | 57 | 209 | 0.0 | 2.0 | 0.00 | 0.02 | 0.02 | 70 | 1005.1 |
| 20260504024020 | 58 | 188 | 0.0 | 2.0 | 0.00 | 0.02 | 0.02 | 69 | 1005.0 |
| 20260504023517 | 58 | 199 | 0.0 | 2.0 | 0.00 | 0.02 | 0.02 | 68 | 1005.1 |
| 20260504023013 | 58 | 192 | 2.0 | 4.0 | 0.00 | 0.02 | 0.02 | 67 | 1005.2 |
| 20260504022508 | 59 | 180 | 1.0 | 3.0 | 0.00 | 0.02 | 0.02 | 67 | 1005.1 |
| 20260504022005 | 59 | 204 | 2.0 | 3.0 | 0.00 | 0.02 | 0.02 | 66 | 1005.1 |
| 20260504021503 | 59 | 202 | 3.0 | 4.0 | 0.00 | 0.02 | 0.02 | 66 | 1005.1 |
| 20260504021000 | 59 | 193 | 3.0 | 4.0 | 0.00 | 0.02 | 0.02 | 66 | 1005.0 |
| 20260504020456 | 60 | 199 | 3.0 | 4.0 | 0.00 | 0.02 | 0.02 | 65 | 1005.0 |
| 20260504015953 | 60 | 187 | 0.0 | 3.0 | 0.00 | 0.02 | 0.02 | 64 | 1004.7 |
| 20260504015449 | 60 | 180 | 4.0 | 6.0 | 0.00 | 0.02 | 0.02 | 63 | 1005.0 |
| 20260504014945 | 60 | 211 | 3.0 | 5.0 | 0.00 | 0.02 | 0.02 | 64 | 1004.6 |
| 20260504014441 | 61 | 188 | 2.0 | 7.0 | 0.00 | 0.02 | 0.02 | 63 | 1004.7 |
| 20260504013938 | 61 | 197 | 3.0 | 4.0 | 0.00 | 0.02 | 0.02 | 63 | 1004.8 |
| 20260504013437 | 61 | 199 | 0.0 | 4.0 | 0.00 | 0.02 | 0.02 | 62 | 1004.6 |
| 20260504012932 | 62 | 201 | 2.0 | 4.0 | 0.00 | 0.02 | 0.02 | 61 | 1004.8 |
| 20260504012431 | 62 | 205 | 3.0 | 7.0 | 0.00 | 0.02 | 0.02 | 60 | 1004.9 |
| 20260504011928 | 62 | 192 | 1.0 | 6.0 | 0.00 | 0.02 | 0.02 | 60 | 1004.8 |
| 20260504011425 | 63 | 201 | 0.0 | 5.0 | 0.00 | 0.02 | 0.02 | 59 | 1004.7 |
| 20260504010920 | 63 | 195 | 0.0 | 5.0 | 0.00 | 0.02 | 0.02 | 59 | 1004.7 |
| 20260504010417 | 63 | 197 | 4.0 | 6.0 | 0.00 | 0.02 | 0.02 | 58 | 1004.6 |
| 20260504005913 | 64 | 195 | 2.0 | 8.0 | 0.00 | 0.02 | 0.02 | 57 | 1004.8 |
| 20260504005410 | 64 | 202 | 4.0 | 8.0 | 0.00 | 0.02 | 0.02 | 57 | 1004.6 |
| 20260504004908 | 64 | 200 | 5.0 | 7.0 | 0.00 | 0.02 | 0.02 | 56 | 1004.4 |
| 20260504004405 | 65 | 197 | 4.0 | 7.0 | 0.00 | 0.02 | 0.02 | 55 | 1004.6 |
| 20260504003902 | 65 | 212 | 2.0 | 11.0 | 0.00 | 0.02 | 0.02 | 56 | 1004.6 |
| 20260504003358 | 65 | 195 | 3.0 | 7.0 | 0.00 | 0.02 | 0.02 | 56 | 1004.8 |
| 20260504002855 | 66 | 201 | 8.0 | 8.0 | 0.00 | 0.02 | 0.02 | 55 | 1004.5 |
| 20260504002352 | 66 | 234 | 3.0 | 8.0 | 0.00 | 0.02 | 0.02 | 54 | 1004.8 |
| 20260504001849 | 67 | 109 | 1.0 | 7.0 | 0.00 | 0.02 | 0.02 | 54 | 1004.7 |
| 20260504001346 | 67 | 194 | 3.0 | 4.0 | 0.00 | 0.02 | 0.02 | 53 | 1004.7 |
| 20260504000843 | 68 | 199 | 4.0 | 11.0 | 0.00 | 0.02 | 0.02 | 53 | 1004.6 |
| 20260504000340 | 68 | 183 | 3.0 | 10.0 | 0.00 | 0.02 | 0.02 | 51 | 1004.7 |
| 20260503235838 | 68 | 190 | 6.0 | 10.0 | 0.00 | 0.02 | 0.02 | 51 | 1004.6 |
| 20260503235335 | 68 | 193 | 6.0 | 11.0 | 0.00 | 0.02 | 0.02 | 50 | 1004.8 |
| 20260503234832 | 69 | 255 | 2.0 | 8.0 | 0.00 | 0.02 | 0.02 | 50 | 1004.7 |
| 20260503234330 | 69 | 166 | 4.0 | 14.0 | 0.00 | 0.02 | 0.02 | 49 | 1005.1 |
| 20260503233828 | 69 | 267 | 8.0 | 11.0 | 0.00 | 0.02 | 0.02 | 49 | 1005.0 |
| 20260503233323 | 69 | 189 | 4.0 | 15.0 | 0.00 | 0.02 | 0.02 | 48 | 1004.6 |
| 20260503232820 | 70 | 185 | 2.0 | 8.0 | 0.00 | 0.02 | 0.02 | 48 | 1004.6 |
| 20260503232318 | 70 | 183 | 3.0 | 13.0 | 0.00 | 0.02 | 0.02 | 47 | 1005.0 |
| 20260503231815 | 70 | 197 | 7.0 | 10.0 | 0.00 | 0.02 | 0.02 | 47 | 1004.9 |
| 20260503231312 | 70 | 194 | 3.0 | 10.0 | 0.00 | 0.02 | 0.02 | 47 | 1004.8 |
| 20260503230808 | 70 | 267 | 0.0 | 13.0 | 0.00 | 0.02 | 0.02 | 46 | 1004.8 |
| 20260503230305 | 70 | 205 | 3.0 | 9.0 | 0.00 | 0.02 | 0.02 | 46 | 1005.0 |
| 20260503225803 | 70 | 198 | 7.0 | 12.0 | 0.00 | 0.02 | 0.02 | 46 | 1005.0 |
| 20260503225258 | 70 | 192 | 7.0 | 7.0 | 0.00 | 0.02 | 0.02 | 46 | 1004.9 |
| 20260503224755 | 70 | 197 | 6.0 | 7.0 | 0.00 | 0.02 | 0.02 | 46 | 1004.9 |
| 20260503224253 | 70 | 199 | 9.0 | 11.0 | 0.00 | 0.02 | 0.02 | 47 | 1005.0 |
| 20260503223750 | 70 | 203 | 0.0 | 9.0 | 0.00 | 0.02 | 0.02 | 47 | 1005.1 |
| 20260503223248 | 71 | 202 | 6.0 | 11.0 | 0.00 | 0.02 | 0.02 | 45 | 1005.1 |
| 20260503222743 | 71 | 208 | 6.0 | 14.0 | 0.00 | 0.02 | 0.02 | 45 | 1005.1 |
| 20260503222242 | 70 | 201 | 7.0 | 11.0 | 0.00 | 0.02 | 0.02 | 45 | 1005.2 |
| 20260503221740 | 71 | 180 | 3.0 | 12.0 | 0.00 | 0.02 | 0.02 | 45 | 1005.2 |
| 20260503221237 | 71 | 219 | 3.0 | 14.0 | 0.00 | 0.02 | 0.02 | 46 | 1005.3 |
| 20260503220733 | 71 | 49 | 2.0 | 14.0 | 0.00 | 0.02 | 0.02 | 45 | 1005.2 |
| 20260503220231 | 71 | 213 | 0.0 | 16.0 | 0.00 | 0.02 | 0.02 | 45 | 1005.2 |
| 20260503215727 | 71 | 197 | 3.0 | 13.0 | 0.00 | 0.02 | 0.02 | 43 | 1005.4 |
| 20260503215224 | 70 | 90 | 0.0 | 8.0 | 0.00 | 0.02 | 0.02 | 44 | 1005.3 |
| 20260503214722 | 68 | 193 | 9.0 | 9.0 | 0.00 | 0.02 | 0.02 | 47 | 1005.5 |
| 20260503214219 | 69 | 202 | 5.0 | 10.0 | 0.00 | 0.02 | 0.02 | 45 | 1005.7 |
| 20260503213717 | 69 | 206 | 7.0 | 13.0 | 0.00 | 0.02 | 0.02 | 45 | 1005.4 |
| 20260503213214 | 68 | 241 | 2.0 | 7.0 | 0.00 | 0.02 | 0.02 | 47 | 1005.6 |
| 20260503212711 | 67 | 190 | 3.0 | 16.0 | 0.00 | 0.02 | 0.02 | 47 | 1005.7 |
| 20260503212209 | 68 | 209 | 7.0 | 16.0 | 0.00 | 0.02 | 0.02 | 47 | 1005.5 |
| 20260503211706 | 69 | 192 | 2.0 | 16.0 | 0.00 | 0.02 | 0.02 | 45 | 1005.5 |
| 20260503211202 | 68 | 190 | 7.0 | 15.0 | 0.00 | 0.02 | 0.02 | 46 | 1005.7 |
| 20260503210658 | 67 | 208 | 7.0 | 13.0 | 0.00 | 0.02 | 0.02 | 48 | 1005.9 |
| 20260503210155 | 67 | 205 | 6.0 | 14.0 | 0.00 | 0.02 | 0.02 | 46 | 1005.9 |
| 20260503205650 | 69 | 198 | 3.0 | 14.0 | 0.00 | 0.02 | 0.02 | 45 | 1006.0 |
| 20260503205146 | 69 | 185 | 6.0 | 21.0 | 0.00 | 0.02 | 0.02 | 46 | 1006.0 |
| 20260503204643 | 68 | 194 | 10.0 | 19.0 | 0.00 | 0.02 | 0.02 | 45 | 1006.2 |
| 20260503204141 | 67 | 198 | 8.0 | 15.0 | 0.00 | 0.02 | 0.02 | 47 | 1006.2 |
| 20260503203638 | 66 | 190 | 5.0 | 16.0 | 0.00 | 0.02 | 0.02 | 48 | 1006.6 |
| 20260503203136 | 66 | 189 | 2.0 | 12.0 | 0.00 | 0.02 | 0.02 | 48 | 1006.6 |
| 20260503202633 | 65 | 207 | 7.0 | 16.0 | 0.00 | 0.02 | 0.02 | 47 | 1006.6 |
| 20260503202131 | 66 | 200 | 10.0 | 22.0 | 0.00 | 0.02 | 0.02 | 46 | 1006.6 |
| 20260503201628 | 67 | 199 | 5.0 | 20.0 | 0.00 | 0.02 | 0.02 | 47 | 1007.3 |
| 20260503201126 | 66 | 200 | 11.0 | 22.0 | 0.00 | 0.02 | 0.02 | 45 | 1007.0 |
| 20260503200621 | 66 | 210 | 7.0 | 15.0 | 0.00 | 0.02 | 0.02 | 44 | 1007.2 |
| 20260503200118 | 68 | 198 | 9.0 | 15.0 | 0.00 | 0.02 | 0.02 | 44 | 1007.1 |
| 20260503195615 | 67 | 201 | 16.0 | 16.0 | 0.00 | 0.02 | 0.02 | 44 | 1007.1 |
| 20260503195112 | 66 | 218 | 7.0 | 17.0 | 0.00 | 0.02 | 0.02 | 46 | 1007.3 |